sensor_id;sensor_type;location;lat;lon;timestamp;temperature;humidity
50548;DHT22;38013;48.810;8.818;2022-08-19T00:01:39;22.00;69.10
50548;DHT22;38013;48.810;8.818;2022-08-19T00:04:08;22.00;69.20
50548;DHT22;38013;48.810;8.818;2022-08-19T00:06:37;22.00;69.20
50548;DHT22;38013;48.810;8.818;2022-08-19T00:09:06;22.00;69.00
50548;DHT22;38013;48.810;8.818;2022-08-19T00:11:36;22.00;69.00
50548;DHT22;38013;48.810;8.818;2022-08-19T00:14:04;22.00;69.10
50548;DHT22;38013;48.810;8.818;2022-08-19T00:16:32;22.00;69.20
50548;DHT22;38013;48.810;8.818;2022-08-19T00:18:58;22.00;69.10
50548;DHT22;38013;48.810;8.818;2022-08-19T00:21:25;22.00;69.10
50548;DHT22;38013;48.810;8.818;2022-08-19T00:23:55;22.00;69.00
50548;DHT22;38013;48.810;8.818;2022-08-19T00:26:25;22.00;69.00
50548;DHT22;38013;48.810;8.818;2022-08-19T00:28:51;22.00;68.90
50548;DHT22;38013;48.810;8.818;2022-08-19T00:31:17;22.00;68.90
50548;DHT22;38013;48.810;8.818;2022-08-19T00:33:43;22.00;69.00
50548;DHT22;38013;48.810;8.818;2022-08-19T00:36:10;22.00;68.80
50548;DHT22;38013;48.810;8.818;2022-08-19T00:38:38;22.00;69.50
50548;DHT22;38013;48.810;8.818;2022-08-19T00:41:08;22.00;69.10
50548;DHT22;38013;48.810;8.818;2022-08-19T00:43:34;22.00;69.00
50548;DHT22;38013;48.810;8.818;2022-08-19T00:46:00;21.90;68.90
50548;DHT22;38013;48.810;8.818;2022-08-19T00:48:30;21.90;68.80
50548;DHT22;38013;48.810;8.818;2022-08-19T00:50:57;21.90;68.90
50548;DHT22;38013;48.810;8.818;2022-08-19T00:53:27;21.90;68.80
50548;DHT22;38013;48.810;8.818;2022-08-19T00:55:56;21.90;68.90
50548;DHT22;38013;48.810;8.818;2022-08-19T00:58:24;21.80;69.00
50548;DHT22;38013;48.810;8.818;2022-08-19T01:00:52;21.80;68.90
50548;DHT22;38013;48.810;8.818;2022-08-19T01:03:20;21.80;68.80
50548;DHT22;38013;48.810;8.818;2022-08-19T01:05:49;21.80;69.00
50548;DHT22;38013;48.810;8.818;2022-08-19T01:08:17;21.80;69.00
50548;DHT22;38013;48.810;8.818;2022-08-19T01:10:53;21.80;69.10
50548;DHT22;38013;48.810;8.818;2022-08-19T01:13:23;21.70;69.50
50548;DHT22;38013;48.810;8.818;2022-08-19T01:16:03;21.70;69.20
50548;DHT22;38013;48.810;8.818;2022-08-19T01:18:32;21.70;69.40
50548;DHT22;38013;48.810;8.818;2022-08-19T01:21:07;21.70;69.20
50548;DHT22;38013;48.810;8.818;2022-08-19T01:23:37;21.70;69.30
50548;DHT22;38013;48.810;8.818;2022-08-19T01:26:13;21.70;69.30
50548;DHT22;38013;48.810;8.818;2022-08-19T01:28:45;21.70;69.30
50548;DHT22;38013;48.810;8.818;2022-08-19T01:31:19;21.70;69.30
50548;DHT22;38013;48.810;8.818;2022-08-19T01:33:51;21.70;69.30
50548;DHT22;38013;48.810;8.818;2022-08-19T01:38:59;21.70;69.50
50548;DHT22;38013;48.810;8.818;2022-08-19T01:41:26;21.70;69.40
50548;DHT22;38013;48.810;8.818;2022-08-19T01:43:52;21.70;69.50
50548;DHT22;38013;48.810;8.818;2022-08-19T01:46:18;21.70;69.60
50548;DHT22;38013;48.810;8.818;2022-08-19T01:48:45;21.70;69.70
50548;DHT22;38013;48.810;8.818;2022-08-19T01:51:13;21.70;69.70
50548;DHT22;38013;48.810;8.818;2022-08-19T01:53:40;21.60;69.70
50548;DHT22;38013;48.810;8.818;2022-08-19T01:56:07;21.70;69.80
50548;DHT22;38013;48.810;8.818;2022-08-19T01:58:38;21.60;69.70
50548;DHT22;38013;48.810;8.818;2022-08-19T02:01:08;21.60;69.70
50548;DHT22;38013;48.810;8.818;2022-08-19T02:03:34;21.60;69.90
50548;DHT22;38013;48.810;8.818;2022-08-19T02:06:03;21.60;69.90
50548;DHT22;38013;48.810;8.818;2022-08-19T02:08:33;21.60;69.90
50548;DHT22;38013;48.810;8.818;2022-08-19T02:11:01;21.60;69.90
50548;DHT22;38013;48.810;8.818;2022-08-19T02:13:27;21.60;70.00
50548;DHT22;38013;48.810;8.818;2022-08-19T02:15:53;21.60;70.20
50548;DHT22;38013;48.810;8.818;2022-08-19T02:18:19;21.60;70.20
50548;DHT22;38013;48.810;8.818;2022-08-19T02:20:45;21.60;70.20
50548;DHT22;38013;48.810;8.818;2022-08-19T02:23:13;21.60;70.20
50548;DHT22;38013;48.810;8.818;2022-08-19T02:25:41;21.60;70.30
50548;DHT22;38013;48.810;8.818;2022-08-19T02:28:07;21.60;70.20
50548;DHT22;38013;48.810;8.818;2022-08-19T02:30:33;21.60;70.20
50548;DHT22;38013;48.810;8.818;2022-08-19T02:32:59;21.60;70.20
50548;DHT22;38013;48.810;8.818;2022-08-19T02:35:25;21.60;70.30
50548;DHT22;38013;48.810;8.818;2022-08-19T02:37:51;21.60;70.40
50548;DHT22;38013;48.810;8.818;2022-08-19T02:40:35;21.50;70.60
50548;DHT22;38013;48.810;8.818;2022-08-19T02:43:06;21.50;71.10
50548;DHT22;38013;48.810;8.818;2022-08-19T02:45:34;21.50;70.60
50548;DHT22;38013;48.810;8.818;2022-08-19T02:48:01;21.50;70.60
50548;DHT22;38013;48.810;8.818;2022-08-19T02:50:28;21.50;70.60
50548;DHT22;38013;48.810;8.818;2022-08-19T02:52:54;21.50;70.80
50548;DHT22;38013;48.810;8.818;2022-08-19T02:55:20;21.40;70.90
50548;DHT22;38013;48.810;8.818;2022-08-19T02:57:46;21.40;70.90
50548;DHT22;38013;48.810;8.818;2022-08-19T03:00:13;21.40;71.00
50548;DHT22;38013;48.810;8.818;2022-08-19T03:02:39;21.40;71.10
50548;DHT22;38013;48.810;8.818;2022-08-19T03:05:07;21.40;71.20
50548;DHT22;38013;48.810;8.818;2022-08-19T03:07:36;21.30;71.40
50548;DHT22;38013;48.810;8.818;2022-08-19T03:10:02;21.40;71.40
50548;DHT22;38013;48.810;8.818;2022-08-19T03:12:29;21.30;71.30
50548;DHT22;38013;48.810;8.818;2022-08-19T03:14:55;21.30;71.50
50548;DHT22;38013;48.810;8.818;2022-08-19T03:17:21;21.30;71.60
50548;DHT22;38013;48.810;8.818;2022-08-19T03:19:46;21.30;71.60
50548;DHT22;38013;48.810;8.818;2022-08-19T03:22:12;21.30;71.70
50548;DHT22;38013;48.810;8.818;2022-08-19T03:24:38;21.30;71.70
50548;DHT22;38013;48.810;8.818;2022-08-19T03:27:04;21.30;71.70
50548;DHT22;38013;48.810;8.818;2022-08-19T03:29:31;21.30;71.80
50548;DHT22;38013;48.810;8.818;2022-08-19T03:31:58;21.20;71.80
50548;DHT22;38013;48.810;8.818;2022-08-19T03:34:28;21.20;71.80
50548;DHT22;38013;48.810;8.818;2022-08-19T03:36:58;21.20;71.90
50548;DHT22;38013;48.810;8.818;2022-08-19T03:39:27;21.20;71.90
50548;DHT22;38013;48.810;8.818;2022-08-19T03:41:54;21.20;71.90
50548;DHT22;38013;48.810;8.818;2022-08-19T03:44:28;21.20;72.00
50548;DHT22;38013;48.810;8.818;2022-08-19T03:46:56;21.20;72.00
50548;DHT22;38013;48.810;8.818;2022-08-19T03:49:25;21.20;72.10
50548;DHT22;38013;48.810;8.818;2022-08-19T03:51:52;21.10;72.20
50548;DHT22;38013;48.810;8.818;2022-08-19T03:54:21;21.10;72.60
50548;DHT22;38013;48.810;8.818;2022-08-19T03:56:49;21.20;72.00
50548;DHT22;38013;48.810;8.818;2022-08-19T03:59:23;21.10;72.10
50548;DHT22;38013;48.810;8.818;2022-08-19T04:01:52;21.10;72.30
50548;DHT22;38013;48.810;8.818;2022-08-19T04:04:19;21.10;72.40
50548;DHT22;38013;48.810;8.818;2022-08-19T04:06:44;21.00;72.50
50548;DHT22;38013;48.810;8.818;2022-08-19T04:09:12;21.00;72.60
50548;DHT22;38013;48.810;8.818;2022-08-19T04:11:41;21.00;72.70
50548;DHT22;38013;48.810;8.818;2022-08-19T04:14:15;21.00;72.90
50548;DHT22;38013;48.810;8.818;2022-08-19T04:16:44;21.00;73.00
50548;DHT22;38013;48.810;8.818;2022-08-19T04:19:12;21.00;72.90
50548;DHT22;38013;48.810;8.818;2022-08-19T04:21:39;21.00;73.00
50548;DHT22;38013;48.810;8.818;2022-08-19T04:24:05;21.00;73.10
50548;DHT22;38013;48.810;8.818;2022-08-19T04:26:33;20.90;73.10
50548;DHT22;38013;48.810;8.818;2022-08-19T04:29:04;21.00;73.30
50548;DHT22;38013;48.810;8.818;2022-08-19T04:31:33;20.90;73.30
50548;DHT22;38013;48.810;8.818;2022-08-19T04:34:05;20.90;73.30
50548;DHT22;38013;48.810;8.818;2022-08-19T04:36:35;20.90;73.30
50548;DHT22;38013;48.810;8.818;2022-08-19T04:39:06;20.90;73.50
50548;DHT22;38013;48.810;8.818;2022-08-19T04:41:33;20.90;73.50
50548;DHT22;38013;48.810;8.818;2022-08-19T04:44:18;20.90;73.50
50548;DHT22;38013;48.810;8.818;2022-08-19T04:46:46;20.90;73.50
50548;DHT22;38013;48.810;8.818;2022-08-19T04:49:14;20.90;73.60
50548;DHT22;38013;48.810;8.818;2022-08-19T04:51:43;20.90;73.70
50548;DHT22;38013;48.810;8.818;2022-08-19T04:54:10;20.90;73.70
50548;DHT22;38013;48.810;8.818;2022-08-19T04:56:37;20.90;73.90
50548;DHT22;38013;48.810;8.818;2022-08-19T04:59:04;20.90;73.90
50548;DHT22;38013;48.810;8.818;2022-08-19T05:01:32;20.90;74.00
50548;DHT22;38013;48.810;8.818;2022-08-19T05:04:00;20.90;74.20
50548;DHT22;38013;48.810;8.818;2022-08-19T05:06:26;20.90;74.20
50548;DHT22;38013;48.810;8.818;2022-08-19T05:08:54;20.90;74.20
50548;DHT22;38013;48.810;8.818;2022-08-19T05:11:25;20.90;74.20
50548;DHT22;38013;48.810;8.818;2022-08-19T05:13:54;20.90;74.40
50548;DHT22;38013;48.810;8.818;2022-08-19T05:16:21;20.90;74.20
50548;DHT22;38013;48.810;8.818;2022-08-19T05:18:48;20.90;74.20
50548;DHT22;38013;48.810;8.818;2022-08-19T05:21:33;20.90;74.20
50548;DHT22;38013;48.810;8.818;2022-08-19T05:24:20;20.90;74.10
50548;DHT22;38013;48.810;8.818;2022-08-19T05:26:48;20.90;74.20
50548;DHT22;38013;48.810;8.818;2022-08-19T05:29:20;20.90;74.20
50548;DHT22;38013;48.810;8.818;2022-08-19T05:31:47;20.90;74.20
50548;DHT22;38013;48.810;8.818;2022-08-19T05:34:15;21.00;74.20
50548;DHT22;38013;48.810;8.818;2022-08-19T05:36:43;20.90;74.20
50548;DHT22;38013;48.810;8.818;2022-08-19T05:39:16;21.00;74.20
50548;DHT22;38013;48.810;8.818;2022-08-19T05:41:54;21.00;74.30
50548;DHT22;38013;48.810;8.818;2022-08-19T05:44:27;21.00;74.20
50548;DHT22;38013;48.810;8.818;2022-08-19T05:46:58;21.00;74.10
50548;DHT22;38013;48.810;8.818;2022-08-19T05:49:29;21.00;74.10
50548;DHT22;38013;48.810;8.818;2022-08-19T05:51:55;21.00;74.10
50548;DHT22;38013;48.810;8.818;2022-08-19T05:54:23;21.00;74.10
50548;DHT22;38013;48.810;8.818;2022-08-19T05:56:50;21.00;74.00
50548;DHT22;38013;48.810;8.818;2022-08-19T05:59:17;21.00;74.10
50548;DHT22;38013;48.810;8.818;2022-08-19T06:01:46;21.00;74.00
50548;DHT22;38013;48.810;8.818;2022-08-19T06:04:15;21.00;74.70
50548;DHT22;38013;48.810;8.818;2022-08-19T06:06:44;21.00;74.00
50548;DHT22;38013;48.810;8.818;2022-08-19T06:09:11;21.10;74.00
50548;DHT22;38013;48.810;8.818;2022-08-19T06:14:12;21.10;74.00
50548;DHT22;38013;48.810;8.818;2022-08-19T06:16:41;21.10;74.10
50548;DHT22;38013;48.810;8.818;2022-08-19T06:19:10;21.10;73.80
50548;DHT22;38013;48.810;8.818;2022-08-19T06:21:39;21.20;73.80
50548;DHT22;38013;48.810;8.818;2022-08-19T06:24:15;21.20;73.90
50548;DHT22;38013;48.810;8.818;2022-08-19T06:26:46;21.20;73.90
50548;DHT22;38013;48.810;8.818;2022-08-19T06:29:14;21.20;73.60
50548;DHT22;38013;48.810;8.818;2022-08-19T06:31:43;21.20;73.50
50548;DHT22;38013;48.810;8.818;2022-08-19T06:34:14;21.20;73.50
50548;DHT22;38013;48.810;8.818;2022-08-19T06:36:44;21.30;73.50
50548;DHT22;38013;48.810;8.818;2022-08-19T06:39:22;21.30;73.50
50548;DHT22;38013;48.810;8.818;2022-08-19T06:41:52;21.30;73.30
50548;DHT22;38013;48.810;8.818;2022-08-19T06:44:22;21.30;73.20
50548;DHT22;38013;48.810;8.818;2022-08-19T06:46:49;21.40;73.00
50548;DHT22;38013;48.810;8.818;2022-08-19T06:49:16;21.40;73.00
50548;DHT22;38013;48.810;8.818;2022-08-19T06:51:44;21.40;73.10
50548;DHT22;38013;48.810;8.818;2022-08-19T06:54:13;21.30;73.00
50548;DHT22;38013;48.810;8.818;2022-08-19T06:56:40;21.40;73.30
50548;DHT22;38013;48.810;8.818;2022-08-19T06:59:12;21.40;73.50
50548;DHT22;38013;48.810;8.818;2022-08-19T07:01:50;21.40;73.00
50548;DHT22;38013;48.810;8.818;2022-08-19T07:04:20;21.50;73.10
50548;DHT22;38013;48.810;8.818;2022-08-19T07:06:57;21.50;72.90
50548;DHT22;38013;48.810;8.818;2022-08-19T07:09:24;21.50;73.20
50548;DHT22;38013;48.810;8.818;2022-08-19T07:11:51;21.50;73.30
50548;DHT22;38013;48.810;8.818;2022-08-19T07:14:20;21.60;72.60
50548;DHT22;38013;48.810;8.818;2022-08-19T07:16:48;21.60;72.50
50548;DHT22;38013;48.810;8.818;2022-08-19T07:19:17;21.60;72.40
50548;DHT22;38013;48.810;8.818;2022-08-19T07:21:43;21.60;72.40
50548;DHT22;38013;48.810;8.818;2022-08-19T07:24:09;21.60;72.30
50548;DHT22;38013;48.810;8.818;2022-08-19T07:26:40;21.70;72.60
50548;DHT22;38013;48.810;8.818;2022-08-19T07:29:07;21.70;72.30
50548;DHT22;38013;48.810;8.818;2022-08-19T07:31:34;21.70;72.30
50548;DHT22;38013;48.810;8.818;2022-08-19T07:34:03;21.70;72.30
50548;DHT22;38013;48.810;8.818;2022-08-19T07:36:36;21.80;72.10
50548;DHT22;38013;48.810;8.818;2022-08-19T07:39:06;21.80;72.10
50548;DHT22;38013;48.810;8.818;2022-08-19T07:41:37;21.80;72.00
50548;DHT22;38013;48.810;8.818;2022-08-19T07:44:04;21.90;72.10
50548;DHT22;38013;48.810;8.818;2022-08-19T07:46:31;21.90;72.00
50548;DHT22;38013;48.810;8.818;2022-08-19T07:48:58;21.90;71.90
50548;DHT22;38013;48.810;8.818;2022-08-19T07:51:24;22.00;72.00
50548;DHT22;38013;48.810;8.818;2022-08-19T07:53:50;22.00;72.00
50548;DHT22;38013;48.810;8.818;2022-08-19T07:56:18;22.10;71.90
50548;DHT22;38013;48.810;8.818;2022-08-19T07:58:47;22.10;71.80
50548;DHT22;38013;48.810;8.818;2022-08-19T08:01:20;22.20;71.70
50548;DHT22;38013;48.810;8.818;2022-08-19T08:03:49;22.30;71.50
50548;DHT22;38013;48.810;8.818;2022-08-19T08:06:34;22.40;71.20
50548;DHT22;38013;48.810;8.818;2022-08-19T08:09:31;22.40;70.80
50548;DHT22;38013;48.810;8.818;2022-08-19T08:12:05;22.40;70.60
50548;DHT22;38013;48.810;8.818;2022-08-19T08:14:54;22.50;70.90
50548;DHT22;38013;48.810;8.818;2022-08-19T08:17:24;22.50;70.60
50548;DHT22;38013;48.810;8.818;2022-08-19T08:19:52;22.50;70.60
50548;DHT22;38013;48.810;8.818;2022-08-19T08:22:20;22.60;70.30
50548;DHT22;38013;48.810;8.818;2022-08-19T08:25:09;22.70;70.50
50548;DHT22;38013;48.810;8.818;2022-08-19T08:27:41;22.70;70.30
50548;DHT22;38013;48.810;8.818;2022-08-19T08:30:19;22.80;70.10
50548;DHT22;38013;48.810;8.818;2022-08-19T08:32:47;22.80;70.00
50548;DHT22;38013;48.810;8.818;2022-08-19T08:35:16;22.90;69.90
50548;DHT22;38013;48.810;8.818;2022-08-19T08:37:45;22.90;69.70
50548;DHT22;38013;48.810;8.818;2022-08-19T08:43:34;23.00;69.50
50548;DHT22;38013;48.810;8.818;2022-08-19T08:51:42;23.10;69.00
50548;DHT22;38013;48.810;8.818;2022-08-19T08:54:14;23.20;69.00
50548;DHT22;38013;48.810;8.818;2022-08-19T08:56:41;23.20;69.00
50548;DHT22;38013;48.810;8.818;2022-08-19T08:59:31;23.20;68.80
50548;DHT22;38013;48.810;8.818;2022-08-19T09:02:01;23.20;68.50
50548;DHT22;38013;48.810;8.818;2022-08-19T09:04:27;23.20;68.50
50548;DHT22;38013;48.810;8.818;2022-08-19T09:09:57;23.30;67.80
50548;DHT22;38013;48.810;8.818;2022-08-19T09:12:39;23.30;68.20
50548;DHT22;38013;48.810;8.818;2022-08-19T09:15:13;23.30;68.10
50548;DHT22;38013;48.810;8.818;2022-08-19T09:17:40;23.30;67.90
50548;DHT22;38013;48.810;8.818;2022-08-19T09:22:37;23.30;68.10
50548;DHT22;38013;48.810;8.818;2022-08-19T09:25:06;23.40;68.00
50548;DHT22;38013;48.810;8.818;2022-08-19T09:27:33;23.40;68.00
50548;DHT22;38013;48.810;8.818;2022-08-19T09:29:59;23.40;67.80
50548;DHT22;38013;48.810;8.818;2022-08-19T09:32:25;23.40;67.80
50548;DHT22;38013;48.810;8.818;2022-08-19T09:34:52;23.40;67.70
50548;DHT22;38013;48.810;8.818;2022-08-19T09:37:24;23.40;67.60
50548;DHT22;38013;48.810;8.818;2022-08-19T09:39:50;23.50;67.80
50548;DHT22;38013;48.810;8.818;2022-08-19T09:42:16;23.40;67.50
50548;DHT22;38013;48.810;8.818;2022-08-19T09:44:43;23.50;67.60
50548;DHT22;38013;48.810;8.818;2022-08-19T09:47:10;23.50;67.50
50548;DHT22;38013;48.810;8.818;2022-08-19T09:49:37;23.50;67.20
50548;DHT22;38013;48.810;8.818;2022-08-19T09:52:05;23.50;67.30
50548;DHT22;38013;48.810;8.818;2022-08-19T09:54:31;23.60;67.30
50548;DHT22;38013;48.810;8.818;2022-08-19T09:56:59;23.60;66.90
50548;DHT22;38013;48.810;8.818;2022-08-19T09:59:28;23.60;66.50
50548;DHT22;38013;48.810;8.818;2022-08-19T10:01:55;23.70;66.50
50548;DHT22;38013;48.810;8.818;2022-08-19T10:04:21;23.70;66.50
50548;DHT22;38013;48.810;8.818;2022-08-19T10:06:49;23.80;66.00
50548;DHT22;38013;48.810;8.818;2022-08-19T10:09:17;23.80;65.90
50548;DHT22;38013;48.810;8.818;2022-08-19T10:11:44;23.80;66.20
50548;DHT22;38013;48.810;8.818;2022-08-19T10:14:13;23.90;66.00
50548;DHT22;38013;48.810;8.818;2022-08-19T10:16:39;24.00;66.30
50548;DHT22;38013;48.810;8.818;2022-08-19T10:19:07;24.10;65.90
50548;DHT22;38013;48.810;8.818;2022-08-19T10:21:33;24.10;65.60
50548;DHT22;38013;48.810;8.818;2022-08-19T10:24:01;24.20;65.50
50548;DHT22;38013;48.810;8.818;2022-08-19T10:26:37;24.20;65.10
50548;DHT22;38013;48.810;8.818;2022-08-19T10:29:06;24.30;64.80
50548;DHT22;38013;48.810;8.818;2022-08-19T10:31:33;24.40;64.80
50548;DHT22;38013;48.810;8.818;2022-08-19T10:34:00;24.40;64.60
50548;DHT22;38013;48.810;8.818;2022-08-19T10:36:32;24.40;64.40
50548;DHT22;38013;48.810;8.818;2022-08-19T10:39:04;24.50;64.20
50548;DHT22;38013;48.810;8.818;2022-08-19T10:41:33;24.60;63.80
50548;DHT22;38013;48.810;8.818;2022-08-19T10:44:02;24.60;63.90
50548;DHT22;38013;48.810;8.818;2022-08-19T10:46:31;24.70;63.80
50548;DHT22;38013;48.810;8.818;2022-08-19T10:48:59;24.70;63.60
50548;DHT22;38013;48.810;8.818;2022-08-19T10:51:27;24.70;63.20
50548;DHT22;38013;48.810;8.818;2022-08-19T10:54:16;24.80;63.60
50548;DHT22;38013;48.810;8.818;2022-08-19T10:56:42;24.80;63.40
50548;DHT22;38013;48.810;8.818;2022-08-19T10:59:20;24.80;63.20
50548;DHT22;38013;48.810;8.818;2022-08-19T11:01:50;24.80;62.60
50548;DHT22;38013;48.810;8.818;2022-08-19T11:04:17;24.90;62.40
50548;DHT22;38013;48.810;8.818;2022-08-19T11:06:45;24.90;62.10
50548;DHT22;38013;48.810;8.818;2022-08-19T11:09:15;24.90;61.90
50548;DHT22;38013;48.810;8.818;2022-08-19T11:11:43;24.90;61.80
50548;DHT22;38013;48.810;8.818;2022-08-19T11:14:11;24.90;61.60
50548;DHT22;38013;48.810;8.818;2022-08-19T11:16:40;24.90;61.50
50548;DHT22;38013;48.810;8.818;2022-08-19T11:19:07;24.90;61.90
50548;DHT22;38013;48.810;8.818;2022-08-19T11:21:37;24.90;61.60
50548;DHT22;38013;48.810;8.818;2022-08-19T11:24:08;24.90;61.40
50548;DHT22;38013;48.810;8.818;2022-08-19T11:26:37;25.00;61.80
50548;DHT22;38013;48.810;8.818;2022-08-19T11:29:05;25.00;61.60
50548;DHT22;38013;48.810;8.818;2022-08-19T11:31:34;25.10;61.80
50548;DHT22;38013;48.810;8.818;2022-08-19T11:34:04;25.20;61.90
50548;DHT22;38013;48.810;8.818;2022-08-19T11:36:31;25.40;61.40
50548;DHT22;38013;48.810;8.818;2022-08-19T11:38:57;25.50;60.80
50548;DHT22;38013;48.810;8.818;2022-08-19T11:41:24;25.50;60.10
50548;DHT22;38013;48.810;8.818;2022-08-19T11:43:52;25.70;59.90
50548;DHT22;38013;48.810;8.818;2022-08-19T11:46:22;25.70;59.60
50548;DHT22;38013;48.810;8.818;2022-08-19T11:48:49;25.80;58.30
50548;DHT22;38013;48.810;8.818;2022-08-19T11:51:19;25.90;58.10
50548;DHT22;38013;48.810;8.818;2022-08-19T11:53:47;25.90;57.30
50548;DHT22;38013;48.810;8.818;2022-08-19T11:56:13;26.00;57.30
50548;DHT22;38013;48.810;8.818;2022-08-19T11:58:39;26.10;57.30
50548;DHT22;38013;48.810;8.818;2022-08-19T12:01:08;26.10;57.20
50548;DHT22;38013;48.810;8.818;2022-08-19T12:03:40;26.20;56.40
50548;DHT22;38013;48.810;8.818;2022-08-19T12:06:08;26.30;56.30
50548;DHT22;38013;48.810;8.818;2022-08-19T12:08:37;26.40;55.90
50548;DHT22;38013;48.810;8.818;2022-08-19T12:11:03;26.40;55.50
50548;DHT22;38013;48.810;8.818;2022-08-19T12:13:30;26.50;55.60
50548;DHT22;38013;48.810;8.818;2022-08-19T12:15:56;26.60;55.30
50548;DHT22;38013;48.810;8.818;2022-08-19T12:18:23;26.70;55.40
50548;DHT22;38013;48.810;8.818;2022-08-19T12:20:51;26.90;55.30
50548;DHT22;38013;48.810;8.818;2022-08-19T12:23:17;27.00;54.30
50548;DHT22;38013;48.810;8.818;2022-08-19T12:25:46;27.10;53.80
50548;DHT22;38013;48.810;8.818;2022-08-19T12:28:16;27.20;52.80
50548;DHT22;38013;48.810;8.818;2022-08-19T12:30:42;27.20;52.20
50548;DHT22;38013;48.810;8.818;2022-08-19T12:33:08;27.30;52.10
50548;DHT22;38013;48.810;8.818;2022-08-19T12:35:34;27.30;52.20
50548;DHT22;38013;48.810;8.818;2022-08-19T12:38:00;27.30;52.80
50548;DHT22;38013;48.810;8.818;2022-08-19T12:40:27;27.40;52.60
50548;DHT22;38013;48.810;8.818;2022-08-19T12:42:54;27.50;52.70
50548;DHT22;38013;48.810;8.818;2022-08-19T12:45:20;27.60;52.30
50548;DHT22;38013;48.810;8.818;2022-08-19T12:47:46;27.80;51.80
50548;DHT22;38013;48.810;8.818;2022-08-19T12:50:13;28.00;51.40
50548;DHT22;38013;48.810;8.818;2022-08-19T12:52:39;28.20;51.30
50548;DHT22;38013;48.810;8.818;2022-08-19T12:55:06;28.30;50.80
50548;DHT22;38013;48.810;8.818;2022-08-19T12:57:33;28.40;50.10
50548;DHT22;38013;48.810;8.818;2022-08-19T13:00:08;28.50;50.10
50548;DHT22;38013;48.810;8.818;2022-08-19T13:02:37;28.60;50.00
50548;DHT22;38013;48.810;8.818;2022-08-19T13:05:09;28.60;50.70
50548;DHT22;38013;48.810;8.818;2022-08-19T13:07:37;28.70;50.30
50548;DHT22;38013;48.810;8.818;2022-08-19T13:10:05;28.70;50.10
50548;DHT22;38013;48.810;8.818;2022-08-19T13:12:33;28.70;50.00
50548;DHT22;38013;48.810;8.818;2022-08-19T13:14:58;28.70;50.00
50548;DHT22;38013;48.810;8.818;2022-08-19T13:17:24;28.70;50.40
50548;DHT22;38013;48.810;8.818;2022-08-19T13:19:50;28.60;50.20
50548;DHT22;38013;48.810;8.818;2022-08-19T13:22:16;28.60;50.30
50548;DHT22;38013;48.810;8.818;2022-08-19T13:24:42;28.60;50.20
50548;DHT22;38013;48.810;8.818;2022-08-19T13:27:08;28.60;50.40
50548;DHT22;38013;48.810;8.818;2022-08-19T13:29:34;28.60;50.50
50548;DHT22;38013;48.810;8.818;2022-08-19T13:32:18;28.70;50.50
50548;DHT22;38013;48.810;8.818;2022-08-19T13:35:04;28.70;50.70
50548;DHT22;38013;48.810;8.818;2022-08-19T13:37:30;28.80;50.40
50548;DHT22;38013;48.810;8.818;2022-08-19T13:40:20;28.80;50.40
50548;DHT22;38013;48.810;8.818;2022-08-19T13:42:53;28.80;50.10
50548;DHT22;38013;48.810;8.818;2022-08-19T13:45:22;28.70;50.00
50548;DHT22;38013;48.810;8.818;2022-08-19T13:47:51;28.70;49.10
50548;DHT22;38013;48.810;8.818;2022-08-19T13:50:22;28.70;49.10
50548;DHT22;38013;48.810;8.818;2022-08-19T13:52:51;28.60;48.50
50548;DHT22;38013;48.810;8.818;2022-08-19T13:55:17;28.60;48.40
50548;DHT22;38013;48.810;8.818;2022-08-19T13:57:44;28.50;48.90
50548;DHT22;38013;48.810;8.818;2022-08-19T14:00:14;28.50;48.60
50548;DHT22;38013;48.810;8.818;2022-08-19T14:02:47;28.40;48.40
50548;DHT22;38013;48.810;8.818;2022-08-19T14:05:15;28.40;48.80
50548;DHT22;38013;48.810;8.818;2022-08-19T14:07:41;28.20;48.80
50548;DHT22;38013;48.810;8.818;2022-08-19T14:10:09;28.20;49.00
50548;DHT22;38013;48.810;8.818;2022-08-19T14:12:37;28.20;49.40
50548;DHT22;38013;48.810;8.818;2022-08-19T14:15:05;28.10;48.80
50548;DHT22;38013;48.810;8.818;2022-08-19T14:17:33;28.00;49.20
50548;DHT22;38013;48.810;8.818;2022-08-19T14:20:04;28.00;49.60
50548;DHT22;38013;48.810;8.818;2022-08-19T14:22:35;28.00;49.30
50548;DHT22;38013;48.810;8.818;2022-08-19T14:25:02;27.90;49.50
50548;DHT22;38013;48.810;8.818;2022-08-19T14:27:32;27.90;49.10
50548;DHT22;38013;48.810;8.818;2022-08-19T14:29:58;27.90;49.00
50548;DHT22;38013;48.810;8.818;2022-08-19T14:32:24;27.90;49.00
50548;DHT22;38013;48.810;8.818;2022-08-19T14:34:53;27.90;48.90
50548;DHT22;38013;48.810;8.818;2022-08-19T14:37:20;27.80;48.70
50548;DHT22;38013;48.810;8.818;2022-08-19T14:39:47;27.80;48.70
50548;DHT22;38013;48.810;8.818;2022-08-19T14:42:14;27.70;48.70
50548;DHT22;38013;48.810;8.818;2022-08-19T14:44:41;27.60;48.80
50548;DHT22;38013;48.810;8.818;2022-08-19T14:47:07;27.60;48.80
50548;DHT22;38013;48.810;8.818;2022-08-19T14:49:34;27.50;49.20
50548;DHT22;38013;48.810;8.818;2022-08-19T14:51:59;27.50;49.40
50548;DHT22;38013;48.810;8.818;2022-08-19T14:54:25;27.40;49.80
50548;DHT22;38013;48.810;8.818;2022-08-19T14:56:51;27.40;49.40
50548;DHT22;38013;48.810;8.818;2022-08-19T14:59:17;27.40;49.50
50548;DHT22;38013;48.810;8.818;2022-08-19T15:01:43;27.40;49.40
50548;DHT22;38013;48.810;8.818;2022-08-19T15:04:09;27.40;49.50
50548;DHT22;38013;48.810;8.818;2022-08-19T15:06:35;27.40;49.60
50548;DHT22;38013;48.810;8.818;2022-08-19T15:09:01;27.50;49.80
50548;DHT22;38013;48.810;8.818;2022-08-19T15:11:28;27.60;49.80
50548;DHT22;38013;48.810;8.818;2022-08-19T15:13:55;27.70;49.60
50548;DHT22;38013;48.810;8.818;2022-08-19T15:16:22;27.80;49.30
50548;DHT22;38013;48.810;8.818;2022-08-19T15:18:52;27.90;48.90
50548;DHT22;38013;48.810;8.818;2022-08-19T15:21:20;28.00;48.90
50548;DHT22;38013;48.810;8.818;2022-08-19T15:23:49;28.10;48.70
50548;DHT22;38013;48.810;8.818;2022-08-19T15:26:17;28.10;48.70
50548;DHT22;38013;48.810;8.818;2022-08-19T15:28:44;28.20;48.00
50548;DHT22;38013;48.810;8.818;2022-08-19T15:31:11;28.30;48.00
50548;DHT22;38013;48.810;8.818;2022-08-19T15:33:38;28.30;47.70
50548;DHT22;38013;48.810;8.818;2022-08-19T15:36:08;28.40;47.70
50548;DHT22;38013;48.810;8.818;2022-08-19T15:38:34;28.40;47.10
50548;DHT22;38013;48.810;8.818;2022-08-19T15:41:02;28.40;46.90
50548;DHT22;38013;48.810;8.818;2022-08-19T15:43:59;28.40;46.60
50548;DHT22;38013;48.810;8.818;2022-08-19T15:46:30;28.40;45.90
50548;DHT22;38013;48.810;8.818;2022-08-19T15:48:58;28.40;46.40
50548;DHT22;38013;48.810;8.818;2022-08-19T15:51:26;28.30;46.60
50548;DHT22;38013;48.810;8.818;2022-08-19T15:53:53;28.30;46.80
50548;DHT22;38013;48.810;8.818;2022-08-19T15:56:19;28.20;46.60
50548;DHT22;38013;48.810;8.818;2022-08-19T15:58:45;28.10;46.60
50548;DHT22;38013;48.810;8.818;2022-08-19T16:01:30;28.00;46.50